createdAt,value
2018-11-26T00:00:46.514Z,38.57
2018-11-26T00:03:14.872Z,39.40
2018-11-26T00:05:43.172Z,39.17
2018-11-26T00:08:12.456Z,39.50
2018-11-26T00:10:52.266Z,40.50
2018-11-26T00:13:20.565Z,39.90
2018-11-26T00:15:48.893Z,38.87
2018-11-26T00:18:17.199Z,40.10
2018-11-26T00:20:45.556Z,39.50
2018-11-26T00:23:13.882Z,41.27
2018-11-26T00:25:42.237Z,39.67
2018-11-26T00:28:10.627Z,40.10
2018-11-26T00:30:39.167Z,39.03
2018-11-26T00:33:07.531Z,38.50
2018-11-26T00:35:35.897Z,38.17
2018-11-26T00:38:04.229Z,39.57
2018-11-26T00:40:32.665Z,39.60
2018-11-26T00:43:01.024Z,38.80
2018-11-26T00:45:29.388Z,39.87
2018-11-26T00:47:57.743Z,39.37
2018-11-26T00:50:26.073Z,40.43
2018-11-26T00:52:54.407Z,38.93
2018-11-26T00:55:22.764Z,41.53
2018-11-26T00:57:51.099Z,40.90
2018-11-26T01:00:19.996Z,41.27
2018-11-26T01:02:48.372Z,40.33
2018-11-26T01:05:27.822Z,41.33
2018-11-26T01:07:55.976Z,40.13
2018-11-26T01:10:24.140Z,41.17
2018-11-26T01:12:52.347Z,41.77
2018-11-26T01:15:20.523Z,41.77
2018-11-26T01:17:48.704Z,42.37
2018-11-26T01:20:16.908Z,41.97
2018-11-26T01:22:45.031Z,43.23
2018-11-26T01:25:13.209Z,43.13
2018-11-26T01:27:41.645Z,44.80
2018-11-26T01:30:09.943Z,42.73
2018-11-26T01:32:38.116Z,42.70
2018-11-26T01:35:07.392Z,43.23
2018-11-26T01:37:35.576Z,42.57
2018-11-26T01:40:03.971Z,41.93
2018-11-26T01:42:32.139Z,43.30
2018-11-26T01:45:00.745Z,44.93
2018-11-26T01:47:28.907Z,43.87
2018-11-26T01:49:57.063Z,45.47
2018-11-26T01:52:25.245Z,43.70
2018-11-26T01:54:53.408Z,44.93
2018-11-26T01:57:21.571Z,44.53
2018-11-26T01:59:50.064Z,44.27
2018-11-26T02:02:18.227Z,44.07
2018-11-26T02:04:46.680Z,44.53
2018-11-26T02:07:14.844Z,44.07
2018-11-26T02:09:43.024Z,44.13
2018-11-26T02:12:11.191Z,44.17
2018-11-26T02:14:39.341Z,44.07
2018-11-26T02:17:07.507Z,44.57
2018-11-26T02:19:35.679Z,46.17
2018-11-26T02:22:03.987Z,44.87
2018-11-26T02:24:32.151Z,45.00
2018-11-26T02:27:00.656Z,46.53
2018-11-26T02:29:28.853Z,45.87
2018-11-26T02:31:56.995Z,46.47
2018-11-26T02:34:25.116Z,45.33
2018-11-26T02:36:53.275Z,45.37
2018-11-26T02:39:21.390Z,46.80
2018-11-26T02:41:49.542Z,47.13
2018-11-26T02:44:17.683Z,44.90
2018-11-26T02:46:45.827Z,47.67
2018-11-26T02:49:13.954Z,47.00
2018-11-26T02:51:42.565Z,46.00
2018-11-26T02:54:10.702Z,45.83
2018-11-26T02:56:38.852Z,45.53
2018-11-26T02:59:07.005Z,47.33
2018-11-26T03:01:35.415Z,47.00
2018-11-26T03:04:03.550Z,45.70
2018-11-26T03:06:31.711Z,44.73
2018-11-26T03:08:59.864Z,46.53
2018-11-26T03:11:28.141Z,46.20
2018-11-26T03:13:56.795Z,49.20
2018-11-26T03:16:25.448Z,46.13
2018-11-26T03:18:53.832Z,46.90
2018-11-26T03:21:22.152Z,47.30
2018-11-26T03:23:50.474Z,46.50
2018-11-26T03:26:18.756Z,45.13
2018-11-26T03:28:47.076Z,46.17
2018-11-26T03:31:15.380Z,45.93
2018-11-26T03:33:43.761Z,47.50
2018-11-26T03:36:12.065Z,47.23
2018-11-26T03:38:58.332Z,43.87
2018-11-26T03:41:26.812Z,44.60
2018-11-26T03:43:55.127Z,45.33
2018-11-26T03:46:23.421Z,44.10
2018-11-26T03:48:51.802Z,45.23
2018-11-26T03:51:20.128Z,45.03
2018-11-26T03:53:48.467Z,46.40
2018-11-26T03:56:16.769Z,47.93
2018-11-26T03:58:45.056Z,45.03
2018-11-26T04:01:13.359Z,47.73
2018-11-26T04:03:41.662Z,45.73
2018-11-26T04:06:09.933Z,47.63
2018-11-26T04:08:38.265Z,46.43
2018-11-26T04:11:06.615Z,48.00
2018-11-26T04:13:34.922Z,46.20
2018-11-26T04:16:03.236Z,46.90
2018-11-26T04:18:31.549Z,46.87
2018-11-26T04:20:59.849Z,46.83
2018-11-26T04:23:28.198Z,46.43
2018-11-26T04:25:56.611Z,45.63
2018-11-26T04:28:24.927Z,46.73
2018-11-26T04:30:53.244Z,46.23
2018-11-26T04:33:21.558Z,47.60
2018-11-26T04:35:49.873Z,48.57
2018-11-26T04:38:18.182Z,48.03
2018-11-26T04:40:46.465Z,47.43
2018-11-26T04:43:14.767Z,47.03
2018-11-26T04:45:43.069Z,45.37
2018-11-26T04:48:11.392Z,44.00
2018-11-26T04:50:39.651Z,45.20
2018-11-26T04:53:07.966Z,43.63
2018-11-26T04:55:36.262Z,42.63
2018-11-26T04:58:04.931Z,43.53
2018-11-26T05:00:33.237Z,43.57
2018-11-26T05:03:01.533Z,42.87
2018-11-26T05:05:29.811Z,41.77
2018-11-26T05:07:58.162Z,43.17
2018-11-26T05:10:26.605Z,40.67
2018-11-26T05:12:54.952Z,41.40
2018-11-26T05:15:23.253Z,39.23
2018-11-26T05:17:51.596Z,40.00
2018-11-26T05:20:19.939Z,39.57
2018-11-26T05:22:48.256Z,37.37
2018-11-26T05:25:16.613Z,39.77
2018-11-26T05:27:44.886Z,38.57
2018-11-26T05:30:13.881Z,38.00
2018-11-26T05:32:42.539Z,38.13
2018-11-26T05:35:11.637Z,37.13
2018-11-26T05:37:39.960Z,37.67
2018-11-26T05:40:10.716Z,37.60
2018-11-26T05:42:43.267Z,37.53
2018-11-26T05:45:14.598Z,37.03
2018-11-26T05:47:42.874Z,36.40
2018-11-26T05:50:14.013Z,36.10
2018-11-26T05:52:42.314Z,35.90
2018-11-26T05:55:12.664Z,35.97
2018-11-26T05:57:41.061Z,36.73
2018-11-26T06:00:15.975Z,37.17
2018-11-26T06:02:44.359Z,34.77
2018-11-26T06:05:12.698Z,36.90
2018-11-26T06:07:41.015Z,34.90
2018-11-26T06:10:09.898Z,34.73
2018-11-26T06:12:38.223Z,35.00
2018-11-26T06:15:11.375Z,36.10
2018-11-26T06:17:39.960Z,34.80
2018-11-26T06:20:10.687Z,36.07
2018-11-26T06:22:39.038Z,36.50
2018-11-26T06:25:10.173Z,36.53
2018-11-26T06:27:38.745Z,35.90
2018-11-26T06:30:11.660Z,37.63
2018-11-26T06:32:39.770Z,35.17
2018-11-26T06:35:12.704Z,38.23
2018-11-26T06:37:40.914Z,37.50
2018-11-26T06:40:09.975Z,35.17
2018-11-26T06:42:38.103Z,36.47
2018-11-26T06:45:15.004Z,34.33
2018-11-26T06:47:43.139Z,33.53
2018-11-26T06:50:12.407Z,34.57
2018-11-26T06:52:40.551Z,35.57
2018-11-26T06:55:10.377Z,35.57
2018-11-26T06:57:38.830Z,32.50
2018-11-26T07:00:09.483Z,34.90
2018-11-26T07:02:37.614Z,35.20
2018-11-26T07:05:08.491Z,36.10
2018-11-26T07:07:36.628Z,36.47
2018-11-26T07:10:05.143Z,37.13
2018-11-26T07:12:33.268Z,34.90
2018-11-26T07:15:01.688Z,35.47
2018-11-26T07:17:30.141Z,36.57
2018-11-26T07:19:58.281Z,33.97
2018-11-26T07:22:26.439Z,34.10
2018-11-26T07:24:54.637Z,33.57
2018-11-26T07:27:22.816Z,33.97
2018-11-26T07:29:50.976Z,33.37
2018-11-26T07:32:19.110Z,34.83
2018-11-26T07:34:47.256Z,32.90
2018-11-26T07:37:15.388Z,33.07
2018-11-26T07:39:43.538Z,31.70
2018-11-26T07:42:11.715Z,31.60
2018-11-26T07:44:39.846Z,32.60
2018-11-26T07:47:07.983Z,32.70
2018-11-26T07:49:36.111Z,33.00
2018-11-26T07:52:04.667Z,33.53
2018-11-26T07:54:33.120Z,33.07
2018-11-26T07:57:01.617Z,31.93
2018-11-26T07:59:30.076Z,31.33
2018-11-26T08:01:58.380Z,31.80
2018-11-26T08:04:26.675Z,31.17
2018-11-26T08:06:54.972Z,30.90
2018-11-26T08:09:23.394Z,30.77
2018-11-26T08:11:51.766Z,33.23
2018-11-26T08:14:20.054Z,33.53
2018-11-26T08:16:48.376Z,35.17
2018-11-26T08:19:16.668Z,33.67
2018-11-26T08:21:46.195Z,34.90
2018-11-26T08:24:13.473Z,33.93
2018-11-26T08:26:41.817Z,33.97
2018-11-26T08:29:10.149Z,32.27
2018-11-26T08:31:38.483Z,33.33
2018-11-26T08:34:06.944Z,32.57
2018-11-26T08:36:40.601Z,32.73
2018-11-26T08:39:14.517Z,27.13
2018-11-26T08:41:48.464Z,24.90
2018-11-26T08:44:22.730Z,21.27
2018-11-26T08:46:56.404Z,22.70
2018-11-26T08:49:27.081Z,22.30
2018-11-26T08:51:55.232Z,20.17
2018-11-26T08:54:23.406Z,22.97
2018-11-26T08:56:51.695Z,21.97
2018-11-26T08:59:19.835Z,23.73
2018-11-26T09:01:49.498Z,22.97
2018-11-26T09:04:20.038Z,24.57
2018-11-26T09:06:48.621Z,24.47
2018-11-26T09:09:16.809Z,25.30
2018-11-26T09:11:44.986Z,25.90
2018-11-26T09:14:13.125Z,27.10
2018-11-26T09:16:41.280Z,29.67
2018-11-26T09:19:09.425Z,28.83
2018-11-26T09:21:37.568Z,30.53
2018-11-26T09:24:05.704Z,31.57
2018-11-26T09:26:33.849Z,29.40
2018-11-26T09:29:01.982Z,29.87
2018-11-26T09:31:30.138Z,28.93
2018-11-26T09:33:58.274Z,29.03
2018-11-26T09:36:26.482Z,28.40
2018-11-26T09:38:54.624Z,28.90
2018-11-26T09:41:22.784Z,29.00
2018-11-26T09:43:50.969Z,29.63
2018-11-26T09:46:19.518Z,30.20
2018-11-26T09:48:48.248Z,28.13
2018-11-26T09:51:16.549Z,25.67
2018-11-26T09:53:44.908Z,25.97
2018-11-26T09:56:13.225Z,27.60
2018-11-26T09:58:41.539Z,25.63
2018-11-26T10:01:09.910Z,24.37
2018-11-26T10:03:38.196Z,25.37
2018-11-26T10:06:06.515Z,25.50
2018-11-26T10:08:34.833Z,24.03
2018-11-26T10:11:03.218Z,25.57
2018-11-26T10:13:31.509Z,26.37
2018-11-26T10:15:59.845Z,27.17
2018-11-26T10:18:28.247Z,24.77
2018-11-26T10:20:56.699Z,24.30
2018-11-26T10:23:25.083Z,23.17
2018-11-26T10:25:53.402Z,21.20
2018-11-26T10:28:21.744Z,21.27
2018-11-26T10:30:50.187Z,22.63
2018-11-26T10:33:18.574Z,21.10
2018-11-26T10:35:46.983Z,20.77
2018-11-26T10:38:15.352Z,19.10
2018-11-26T10:40:43.675Z,18.67
2018-11-26T10:43:12.419Z,17.00
2018-11-26T10:45:40.381Z,17.77
2018-11-26T10:48:08.806Z,17.33
2018-11-26T10:50:37.095Z,17.47
2018-11-26T10:53:05.664Z,17.20
2018-11-26T10:55:35.889Z,17.63
2018-11-26T10:58:04.453Z,18.87
2018-11-26T11:00:40.177Z,17.23
2018-11-26T11:03:08.315Z,17.03
2018-11-26T11:05:37.036Z,17.90
2018-11-26T11:08:06.214Z,18.50
2018-11-26T11:10:34.382Z,17.20
2018-11-26T11:13:02.582Z,18.87
2018-11-26T11:15:30.714Z,18.43
2018-11-26T11:17:58.868Z,19.60
2018-11-26T11:20:28.000Z,18.90
2018-11-26T11:22:56.114Z,19.23
2018-11-26T11:25:24.655Z,21.53
2018-11-26T11:27:53.220Z,19.70
2018-11-26T11:30:22.536Z,22.13
2018-11-26T11:32:50.680Z,21.57
2018-11-26T11:35:19.508Z,22.40
2018-11-26T11:37:48.609Z,24.10
2018-11-26T11:40:19.889Z,23.80
2018-11-26T11:42:48.137Z,23.50
2018-11-26T11:45:16.296Z,22.97
2018-11-26T11:47:44.460Z,23.17
2018-11-26T11:50:13.537Z,23.77
2018-11-26T11:52:41.697Z,23.50
2018-11-26T11:55:12.914Z,24.27
2018-11-26T11:57:41.040Z,24.07
2018-11-26T12:00:35.223Z,23.43
2018-11-26T12:03:05.604Z,22.07
2018-11-26T12:05:34.049Z,23.87
2018-11-26T12:08:02.337Z,24.47
2018-11-26T12:10:30.708Z,23.10
2018-11-26T12:12:59.077Z,23.57
2018-11-26T12:15:27.517Z,22.23
2018-11-26T12:17:55.894Z,23.80
2018-11-26T12:20:24.259Z,22.00
2018-11-26T12:22:52.641Z,24.10
2018-11-26T12:25:21.428Z,22.53
2018-11-26T12:27:49.875Z,22.20
2018-11-26T12:30:23.225Z,22.00
2018-11-26T12:32:51.574Z,22.93
2018-11-26T12:35:19.873Z,22.73
2018-11-26T12:37:48.280Z,21.97
2018-11-26T12:40:18.810Z,21.47
2018-11-26T12:42:47.138Z,21.73
2018-11-26T12:45:28.104Z,22.77
2018-11-26T12:47:56.291Z,20.83
2018-11-26T12:50:24.444Z,23.07
2018-11-26T12:52:52.668Z,22.17
2018-11-26T12:55:21.747Z,21.63
2018-11-26T12:57:50.553Z,21.57
2018-11-26T13:00:22.526Z,21.37
2018-11-26T13:05:43.463Z,20.80
2018-11-26T13:08:11.654Z,20.07
2018-11-26T13:10:39.898Z,21.30
2018-11-26T13:13:09.233Z,22.13
2018-11-26T13:15:37.478Z,21.63
2018-11-26T13:18:05.941Z,20.03
2018-11-26T13:20:34.177Z,22.47
2018-11-26T13:23:02.421Z,21.00
2018-11-26T13:25:33.340Z,21.33
2018-11-26T13:28:03.392Z,21.40
2018-11-26T13:30:37.265Z,22.67
2018-11-26T13:33:10.049Z,21.90
2018-11-26T13:35:38.656Z,21.17
2018-11-26T13:38:07.882Z,22.57
2018-11-26T13:40:36.141Z,21.30
2018-11-26T13:43:06.867Z,22.37
2018-11-26T13:45:36.628Z,22.33
2018-11-26T13:48:06.452Z,21.87
2018-11-26T13:50:40.149Z,22.47
2018-11-26T13:53:08.612Z,22.73
2018-11-26T13:55:36.761Z,21.87
2018-11-26T13:58:04.963Z,23.10
2018-11-26T14:00:33.113Z,22.30
2018-11-26T14:03:01.276Z,22.23
2018-11-26T14:05:29.450Z,22.50
2018-11-26T14:07:57.580Z,22.70
2018-11-26T14:10:27.014Z,22.53
2018-11-26T14:13:13.236Z,21.50
2018-11-26T14:15:41.471Z,22.57
2018-11-26T14:18:09.736Z,22.23
2018-11-26T14:20:37.922Z,22.57
2018-11-26T14:23:06.585Z,22.30
2018-11-26T14:25:34.768Z,23.30
2018-11-26T14:28:02.944Z,22.50
2018-11-26T14:30:31.150Z,23.03
2018-11-26T14:32:59.407Z,23.53
2018-11-26T14:35:28.024Z,22.73
2018-11-26T14:37:58.418Z,22.80
2018-11-26T14:40:32.092Z,21.97
2018-11-26T14:43:00.246Z,22.10
2018-11-26T14:45:28.896Z,21.30
2018-11-26T14:47:57.023Z,22.83
2018-11-26T14:50:25.170Z,22.53
2018-11-26T14:52:53.321Z,20.93
2018-11-26T14:55:23.765Z,22.13
2018-11-26T14:57:51.904Z,23.40
2018-11-26T15:00:20.567Z,22.07
2018-11-26T15:02:49.018Z,23.30
2018-11-26T15:05:17.345Z,21.73
2018-11-26T15:07:45.675Z,20.87
2018-11-26T15:10:16.123Z,22.13
2018-11-26T15:12:44.726Z,20.63
2018-11-26T15:15:15.074Z,20.10
2018-11-26T15:17:43.746Z,20.10
2018-11-26T15:20:15.205Z,20.83
2018-11-26T15:22:43.328Z,20.67
2018-11-26T15:25:15.969Z,20.73
2018-11-26T15:27:44.112Z,18.93
2018-11-26T15:30:14.699Z,20.33
2018-11-26T15:32:43.282Z,21.03
2018-11-26T15:35:13.646Z,19.43
2018-11-26T15:37:41.814Z,18.30
2018-11-26T15:40:10.933Z,19.60
2018-11-26T15:42:39.397Z,19.53
2018-11-26T15:45:24.865Z,18.90
2018-11-26T15:47:54.372Z,18.73
2018-11-26T15:50:22.513Z,18.77
2018-11-26T15:52:50.687Z,19.43
2018-11-26T15:55:19.861Z,18.70
2018-11-26T15:57:48.114Z,18.10
2018-11-26T16:00:18.198Z,18.27
2018-11-26T16:02:46.463Z,19.00
2018-11-26T16:05:16.903Z,17.97
2018-11-26T16:07:45.617Z,19.10
2018-11-26T16:10:14.552Z,17.77
2018-11-26T16:12:43.284Z,17.63
2018-11-26T16:15:15.942Z,18.13
2018-11-26T16:17:44.166Z,17.83
2018-11-26T16:20:13.817Z,18.50
2018-11-26T16:22:41.986Z,17.63
2018-11-26T16:25:11.697Z,17.83
2018-11-26T16:27:40.141Z,18.43
2018-11-26T16:30:11.054Z,17.90
2018-11-26T16:32:39.323Z,17.17
2018-11-26T16:35:13.006Z,17.90
2018-11-26T16:37:41.155Z,17.53
2018-11-26T16:40:11.182Z,18.00
2018-11-26T16:42:39.468Z,16.73
2018-11-26T16:45:12.734Z,17.52
2018-11-26T16:47:40.968Z,16.83
2018-11-26T16:50:11.392Z,17.40
2018-11-26T16:52:40.206Z,17.80
2018-11-26T16:55:10.154Z,17.80
2018-11-26T16:57:38.612Z,17.77
2018-11-26T17:00:14.176Z,17.07
2018-11-26T17:02:42.560Z,16.93
2018-11-26T17:05:12.957Z,18.17
2018-11-26T17:07:41.311Z,17.80
2018-11-26T17:10:10.465Z,16.80
2018-11-26T17:12:38.987Z,16.97
2018-11-26T17:15:11.032Z,16.90
2018-11-26T17:17:39.566Z,17.40
2018-11-26T17:20:09.642Z,17.40
2018-11-26T17:22:38.227Z,17.20
2018-11-26T17:25:08.247Z,17.37
2018-11-26T17:27:36.764Z,16.40
2018-11-26T17:30:15.549Z,17.67
2018-11-26T17:32:44.033Z,16.87
2018-11-26T17:35:13.856Z,16.63
2018-11-26T17:37:42.960Z,16.47
2018-11-26T17:40:13.089Z,15.87
2018-11-26T17:42:41.382Z,16.37
2018-11-26T17:45:11.265Z,16.70
2018-11-26T17:47:39.844Z,16.93
2018-11-26T17:50:40.927Z,17.57
2018-11-26T17:53:16.549Z,17.23
2018-11-26T17:55:48.513Z,16.90
2018-11-26T17:58:17.241Z,18.13
2018-11-26T18:00:47.337Z,16.80
2018-11-26T18:03:15.503Z,17.43
2018-11-26T18:05:43.808Z,16.63
2018-11-26T18:08:13.969Z,17.10
2018-11-26T18:10:42.310Z,17.50
2018-11-26T18:13:10.638Z,16.70
2018-11-26T18:15:38.946Z,17.40
2018-11-26T18:18:11.619Z,16.47
2018-11-26T18:20:39.905Z,17.13
2018-11-26T18:23:08.948Z,18.17
2018-11-26T18:25:37.288Z,19.03
2018-11-26T18:28:13.881Z,18.57
2018-11-26T18:30:51.229Z,17.83
2018-11-26T18:33:19.497Z,17.57
2018-11-26T18:35:48.379Z,17.97
2018-11-26T18:38:16.949Z,17.17
2018-11-26T18:40:46.835Z,17.30
2018-11-26T18:43:15.144Z,16.67
2018-11-26T18:45:43.407Z,17.17
2018-11-26T18:48:12.888Z,18.13
2018-11-26T18:50:41.211Z,17.87
2018-11-26T18:53:09.510Z,17.83
2018-11-26T18:55:38.943Z,18.37
2018-11-26T18:58:08.039Z,18.30
2018-11-26T19:00:38.962Z,18.53
2018-11-26T19:03:07.457Z,18.20
2018-11-26T19:05:35.974Z,18.13
2018-11-26T19:08:04.482Z,18.37
2018-11-26T19:10:34.710Z,18.70
2018-11-26T19:13:26.988Z,18.73
2018-11-26T19:16:14.227Z,18.77
2018-11-26T19:18:42.813Z,17.97
2018-11-26T19:21:11.119Z,18.70
2018-11-26T19:23:39.369Z,18.40
2018-11-26T19:26:07.620Z,19.53
2018-11-26T19:28:35.813Z,19.23
2018-11-26T19:31:04.126Z,18.53
2018-11-26T19:33:32.357Z,19.03
2018-11-26T19:36:00.608Z,19.17
2018-11-26T19:38:28.800Z,20.63
2018-11-26T19:40:56.952Z,19.13
2018-11-26T19:43:25.420Z,18.97
2018-11-26T19:45:53.628Z,19.30
2018-11-26T19:48:22.827Z,19.03
2018-11-26T19:50:51.111Z,19.07
2018-11-26T19:53:19.405Z,19.07
2018-11-26T19:55:47.979Z,19.17
2018-11-26T19:58:16.230Z,17.40
2018-11-26T20:00:44.494Z,18.63
2018-11-26T20:03:16.237Z,19.23
2018-11-26T20:06:22.494Z,19.17
2018-11-26T20:08:55.477Z,18.77
2018-11-26T20:11:23.670Z,19.30
2018-11-26T20:13:52.035Z,18.67
2018-11-26T20:16:24.311Z,18.60
2018-11-26T20:18:52.536Z,19.23
2018-11-26T20:21:20.771Z,18.23
2018-11-26T20:23:49.004Z,19.30
2018-11-26T20:26:17.235Z,19.07
2018-11-26T20:28:45.611Z,18.23
2018-11-26T20:31:13.988Z,19.20
2018-11-26T20:33:42.506Z,19.23
2018-11-26T20:36:12.280Z,18.53
2018-11-26T20:38:40.719Z,18.90
2018-11-26T20:41:10.315Z,18.47
2018-11-26T20:43:38.715Z,20.47
2018-11-26T20:46:07.061Z,19.63
2018-11-26T20:48:35.281Z,19.70
2018-11-26T20:51:03.562Z,19.87
2018-11-26T20:53:31.813Z,20.30
2018-11-26T20:56:00.609Z,21.23
2018-11-26T20:58:28.854Z,20.63
2018-11-26T21:00:57.872Z,20.40
2018-11-26T21:03:29.662Z,19.60
2018-11-26T21:05:58.304Z,19.27
2018-11-26T21:08:26.688Z,19.10
2018-11-26T21:10:55.310Z,19.80
2018-11-26T21:13:23.643Z,18.97
2018-11-26T21:15:52.080Z,18.77
2018-11-26T21:18:20.455Z,17.90
2018-11-26T21:20:49.875Z,17.37
2018-11-26T21:23:21.674Z,17.53
2018-11-26T21:25:50.252Z,16.40
2018-11-26T21:28:18.623Z,16.57
2018-11-26T21:30:51.832Z,16.20
2018-11-26T21:33:15.585Z,16.47
2018-11-26T21:35:43.960Z,15.60
2018-11-26T21:38:12.621Z,16.10
2018-11-26T21:40:41.410Z,16.80
2018-11-26T21:43:10.935Z,15.57
2018-11-26T21:45:46.221Z,15.23
2018-11-26T21:48:14.432Z,16.70
2018-11-26T21:50:42.592Z,16.60
2018-11-26T21:53:10.726Z,17.30
2018-11-26T21:55:38.929Z,15.93
2018-11-26T21:58:07.165Z,17.23
2018-11-26T22:00:36.173Z,16.47
2018-11-26T22:03:09.458Z,16.83
2018-11-26T22:05:38.611Z,17.67
2018-11-26T22:08:07.408Z,17.20
2018-11-26T22:10:36.583Z,16.50
2018-11-26T22:13:05.734Z,16.07
2018-11-26T22:15:34.459Z,15.77
2018-11-26T22:18:02.772Z,16.63
2018-11-26T22:20:31.697Z,16.37
2018-11-26T22:22:59.996Z,15.80
2018-11-26T22:25:28.308Z,15.67
2018-11-26T22:27:56.602Z,15.30
2018-11-26T22:30:29.306Z,15.90
2018-11-26T22:32:57.607Z,14.97
2018-11-26T22:35:26.025Z,15.67
2018-11-26T22:37:54.373Z,14.93
2018-11-26T22:40:23.844Z,15.47
2018-11-26T22:42:52.288Z,15.50
2018-11-26T22:45:22.763Z,15.97
2018-11-26T22:47:55.121Z,16.07
2018-11-26T22:50:23.597Z,15.67
2018-11-26T22:52:51.745Z,16.70
2018-11-26T22:55:19.917Z,15.10
2018-11-26T22:57:48.063Z,15.63
2018-11-26T23:00:34.566Z,15.73
2018-11-26T23:03:02.714Z,15.47
2018-11-26T23:05:30.835Z,15.97
2018-11-26T23:07:59.413Z,15.90
2018-11-26T23:10:27.830Z,16.57
2018-11-26T23:12:55.977Z,15.73
2018-11-26T23:15:24.243Z,15.90
2018-11-26T23:17:52.580Z,16.67
2018-11-26T23:20:20.956Z,15.53
2018-11-26T23:22:49.247Z,16.33
2018-11-26T23:25:18.803Z,15.30
2018-11-26T23:27:47.237Z,14.90
2018-11-26T23:30:23.320Z,16.03
2018-11-26T23:32:56.674Z,16.80
2018-11-26T23:35:24.993Z,16.00
2018-11-26T23:37:53.301Z,15.63
2018-11-26T23:40:21.592Z,16.50
2018-11-26T23:42:49.965Z,17.00
2018-11-26T23:45:21.290Z,15.97
2018-11-26T23:47:49.614Z,15.43
2018-11-26T23:50:18.138Z,15.30
2018-11-26T23:52:46.951Z,16.00
2018-11-26T23:55:17.299Z,15.00
2018-11-26T23:57:45.650Z,14.17
